Terminal Aerodrome Forecast
Issued by NWS Twin Cities, MN

Home | Current Version | Previous Version | Graphics & Text | Print | Product List | Glossary On
Versions: 1 2 3 4 5 6 7 8 9 10 11 12 13 14
689
FTUS43 KMPX 131739
TAFEAU
TAF
KEAU 131739Z 1318/1418 VRB02KT P6SM SKC
     FM132000 VRB03KT P6SM SCT250
     FM141000 12007KT P6SM OVC100
     FM141300 12010KT P6SM BKN030 OVC050 PROB30 1413/1417 4SM -SN=

USA.gov is the U.S. government's official web portal to all federal, state and local government web resources and services.